createdAt,value
2018-07-12T00:01:25.843Z,1012.44
2018-07-12T00:02:25.355Z,1012.45
2018-07-12T00:04:21.803Z,1012.46
2018-07-12T00:05:21.303Z,1012.47
2018-07-12T00:07:17.749Z,1012.49
2018-07-12T00:08:17.231Z,1012.48
2018-07-12T00:10:12.184Z,1012.51
2018-07-12T00:11:11.697Z,1012.53
2018-07-12T00:13:09.141Z,1012.60
2018-07-12T00:14:07.637Z,1012.61
2018-07-12T00:16:03.113Z,1012.64
2018-07-12T00:17:02.069Z,1012.64
2018-07-12T00:18:58.023Z,1012.68
2018-07-12T00:19:58.026Z,1012.69
2018-07-12T00:21:54.516Z,1012.68
2018-07-12T00:22:53.963Z,1012.68
2018-07-12T00:24:48.926Z,1012.68
2018-07-12T00:25:48.403Z,1012.68
2018-07-12T00:27:44.851Z,1012.71
2018-07-12T00:28:44.346Z,1012.70
2018-07-12T00:30:38.804Z,1012.66
2018-07-12T00:31:38.778Z,1012.65
2018-07-12T00:33:33.221Z,1012.62
2018-07-12T00:34:33.231Z,1012.63
2018-07-12T00:36:27.683Z,1012.61
2018-07-12T00:37:26.683Z,1012.61
2018-07-12T00:39:21.159Z,1012.64
2018-07-12T00:40:22.159Z,1012.66
2018-07-12T00:42:16.106Z,1012.66
2018-07-12T00:43:16.110Z,1012.66
2018-07-12T00:45:10.100Z,1012.67
2018-07-12T00:46:10.062Z,1012.67
2018-07-12T00:48:06.531Z,1012.65
2018-07-12T00:49:06.017Z,1012.63
2018-07-12T00:51:04.989Z,1012.64
2018-07-12T00:52:03.955Z,1012.66
2018-07-12T00:53:59.414Z,1012.66
2018-07-12T00:54:58.385Z,1012.66
2018-07-12T00:56:53.352Z,1012.65
2018-07-12T00:57:52.808Z,1012.71
2018-07-12T00:59:47.274Z,1012.71
2018-07-12T01:00:47.279Z,1012.66
2018-07-12T01:02:41.747Z,1012.70
2018-07-12T01:03:41.723Z,1012.67
2018-07-12T01:05:39.190Z,1012.70
2018-07-12T01:06:38.177Z,1012.67
2018-07-12T01:08:35.130Z,1012.70
2018-07-12T01:09:33.608Z,1012.72
2018-07-12T01:11:28.061Z,1012.70
2018-07-12T01:12:28.055Z,1012.71
2018-07-12T01:14:22.493Z,1012.68
2018-07-12T01:15:22.514Z,1012.70
2018-07-12T01:17:18.461Z,1012.72
2018-07-12T01:18:18.455Z,1012.72
2018-07-12T01:20:14.922Z,1012.70
2018-07-12T01:21:14.903Z,1012.74
2018-07-12T01:23:08.862Z,1012.71
2018-07-12T01:24:08.871Z,1012.74
2018-07-12T01:26:04.815Z,1012.68
2018-07-12T01:27:04.779Z,1012.65
2018-07-12T01:29:02.672Z,1012.63
2018-07-12T01:30:01.241Z,1012.60
2018-07-12T01:31:55.201Z,1012.57
2018-07-12T01:32:55.198Z,1012.56
2018-07-12T01:34:49.613Z,1012.52
2018-07-12T01:35:49.627Z,1012.48
2018-07-12T01:37:44.063Z,1012.49
2018-07-12T01:38:44.602Z,1012.51
2018-07-12T01:40:40.045Z,1012.50
2018-07-12T01:41:40.003Z,1012.51
2018-07-12T01:43:35.972Z,1012.51
2018-07-12T01:44:35.950Z,1012.53
2018-07-12T01:46:30.919Z,1012.59
2018-07-12T01:47:30.921Z,1012.60
2018-07-12T01:49:24.825Z,1012.59
2018-07-12T01:50:24.832Z,1012.58
2018-07-12T01:52:19.270Z,1012.53
2018-07-12T01:53:19.269Z,1012.51
2018-07-12T01:55:14.728Z,1012.49
2018-07-12T01:56:13.704Z,1012.51
2018-07-12T01:58:08.657Z,1012.50
2018-07-12T01:59:08.151Z,1012.52
2018-07-12T02:01:02.607Z,1012.55
2018-07-12T02:02:02.595Z,1012.55
2018-07-12T02:03:58.580Z,1012.53
2018-07-12T02:04:58.565Z,1012.52
2018-07-12T02:06:53.497Z,1012.53
2018-07-12T02:07:52.965Z,1012.53
2018-07-12T02:09:47.438Z,1012.46
2018-07-12T02:10:47.414Z,1012.49
2018-07-12T02:12:42.394Z,1012.49
2018-07-12T02:13:41.883Z,1012.46
2018-07-12T02:15:37.846Z,1012.45
2018-07-12T02:16:38.314Z,1012.45
2018-07-12T02:18:32.759Z,1012.44
2018-07-12T02:19:32.272Z,1012.45
2018-07-12T02:21:28.720Z,1012.50
2018-07-12T02:22:28.214Z,1012.43
2018-07-12T02:24:22.698Z,1012.48
2018-07-12T02:25:22.689Z,1012.45
2018-07-12T02:27:17.117Z,1012.44
2018-07-12T02:28:18.635Z,1012.46
2018-07-12T02:30:13.137Z,1012.45
2018-07-12T02:31:13.082Z,1012.39
2018-07-12T02:33:08.047Z,1012.33
2018-07-12T02:34:08.040Z,1012.30
2018-07-12T02:36:03.522Z,1012.28
2018-07-12T02:37:03.473Z,1012.33
2018-07-12T02:38:57.895Z,1012.36
2018-07-12T02:39:57.938Z,1012.37
2018-07-12T02:41:52.880Z,1012.37
2018-07-12T02:42:52.864Z,1012.39
2018-07-12T02:44:46.783Z,1012.42
2018-07-12T02:45:46.808Z,1012.41
2018-07-12T02:47:41.281Z,1012.41
2018-07-12T02:48:41.246Z,1012.41
2018-07-12T02:50:35.728Z,1012.41
2018-07-12T02:51:35.687Z,1012.43
2018-07-12T02:53:30.642Z,1012.46
2018-07-12T02:54:30.124Z,1012.48
2018-07-12T02:56:25.084Z,1012.48
2018-07-12T02:57:25.087Z,1012.47
2018-07-12T02:59:19.522Z,1012.50
2018-07-12T03:00:19.013Z,1012.51
2018-07-12T03:02:13.471Z,1012.51
2018-07-12T03:03:14.458Z,1012.55
2018-07-12T03:05:07.896Z,1012.57
2018-07-12T03:06:07.903Z,1012.62
2018-07-12T03:08:02.352Z,1012.55
2018-07-12T03:09:02.868Z,1012.48
2018-07-12T03:10:57.817Z,1012.53
2018-07-12T03:11:56.826Z,1012.53
2018-07-12T03:13:51.347Z,1012.51
2018-07-12T03:14:51.303Z,1012.50
2018-07-12T03:16:45.745Z,1012.54
2018-07-12T03:17:45.724Z,1012.55
2018-07-12T03:19:43.684Z,1012.60
2018-07-12T03:20:41.668Z,1012.59
2018-07-12T03:22:36.141Z,1012.60
2018-07-12T03:23:37.062Z,1012.61
2018-07-12T03:25:30.571Z,1012.54
2018-07-12T03:26:31.072Z,1012.62
2018-07-12T03:28:26.541Z,1012.60
2018-07-12T03:29:26.515Z,1012.64
2018-07-12T03:31:20.979Z,1012.67
2018-07-12T03:32:20.966Z,1012.65
2018-07-12T03:34:15.419Z,1012.63
2018-07-12T03:35:15.409Z,1012.63
2018-07-12T03:37:09.849Z,1012.61
2018-07-12T03:38:10.370Z,1012.66
2018-07-12T03:40:03.334Z,1012.62
2018-07-12T03:41:03.344Z,1012.65
2018-07-12T03:42:59.262Z,1012.63
2018-07-12T03:43:59.269Z,1012.64
2018-07-12T03:45:54.243Z,1012.66
2018-07-12T03:46:53.738Z,1012.61
2018-07-12T03:48:51.676Z,1012.63
2018-07-12T03:49:51.669Z,1012.66
2018-07-12T03:51:46.098Z,1012.65
2018-07-12T03:52:46.115Z,1012.67
2018-07-12T03:54:42.576Z,1012.66
2018-07-12T03:55:42.070Z,1012.67
2018-07-12T03:57:35.513Z,1012.69
2018-07-12T03:58:35.527Z,1012.71
2018-07-12T04:00:30.003Z,1012.74
2018-07-12T04:01:30.486Z,1012.71
2018-07-12T04:03:24.930Z,1012.75
2018-07-12T04:04:24.934Z,1012.75
2018-07-12T04:06:19.389Z,1012.74
2018-07-12T04:07:18.861Z,1012.71
2018-07-12T04:09:13.810Z,1012.69
2018-07-12T04:10:13.298Z,1012.68
2018-07-12T04:12:09.745Z,1012.69
2018-07-12T04:13:09.241Z,1012.68
2018-07-12T04:15:06.204Z,1012.70
2018-07-12T04:16:05.197Z,1012.68
2018-07-12T04:18:03.127Z,1012.67
2018-07-12T04:19:03.151Z,1012.70
2018-07-12T04:20:58.084Z,1012.71
2018-07-12T04:21:57.580Z,1012.72
2018-07-12T04:23:52.021Z,1012.71
2018-07-12T04:24:52.035Z,1012.73
2018-07-12T04:26:50.475Z,1012.69
2018-07-12T04:27:49.948Z,1012.74
2018-07-12T04:29:45.912Z,1012.73
2018-07-12T04:30:45.933Z,1012.75
2018-07-12T04:32:40.366Z,1012.75
2018-07-12T04:33:40.364Z,1012.74
2018-07-12T04:35:36.862Z,1012.76
2018-07-12T04:36:37.348Z,1012.77
2018-07-12T04:38:31.310Z,1012.80
2018-07-12T04:39:30.779Z,1012.80
2018-07-12T04:41:25.745Z,1012.81
2018-07-12T04:42:25.757Z,1012.84
2018-07-12T04:44:19.705Z,1012.89
2018-07-12T04:45:20.179Z,1012.92
2018-07-12T04:47:16.145Z,1012.91
2018-07-12T04:48:15.621Z,1012.93
2018-07-12T04:50:10.114Z,1012.97
2018-07-12T04:51:10.111Z,1012.92
2018-07-12T04:53:05.049Z,1012.91
2018-07-12T04:54:04.666Z,1012.90
2018-07-12T04:55:58.952Z,1012.91
2018-07-12T04:56:58.989Z,1012.92
2018-07-12T04:58:55.926Z,1012.92
2018-07-12T04:59:54.925Z,1012.95
2018-07-12T05:01:49.391Z,1012.90
2018-07-12T05:02:49.354Z,1012.94
2018-07-12T05:04:45.351Z,1012.96
2018-07-12T05:05:45.306Z,1012.97
2018-07-12T05:07:41.252Z,1012.94
2018-07-12T05:08:41.247Z,1012.96
2018-07-12T05:10:36.723Z,1012.95
2018-07-12T05:11:35.709Z,1012.95
2018-07-12T05:13:31.580Z,1012.94
2018-07-12T05:14:30.149Z,1012.88
2018-07-12T05:16:24.568Z,1012.90
2018-07-12T05:17:24.593Z,1012.91
2018-07-12T05:19:20.653Z,1012.96
2018-07-12T05:20:20.594Z,1012.92
2018-07-12T05:22:14.956Z,1012.95
2018-07-12T05:23:14.985Z,1012.90
2018-07-12T05:25:09.446Z,1012.94
2018-07-12T05:26:09.924Z,1012.97
2018-07-12T05:28:03.878Z,1013.00
2018-07-12T05:29:03.856Z,1013.06
2018-07-12T05:30:59.315Z,1013.08
2018-07-12T05:31:58.304Z,1013.03
2018-07-12T05:33:52.750Z,1013.10
2018-07-12T05:34:52.734Z,1013.08
2018-07-12T05:36:47.708Z,1013.12
2018-07-12T05:37:47.186Z,1013.12
2018-07-12T05:39:41.644Z,1013.08
2018-07-12T05:40:42.127Z,1013.12
2018-07-12T05:42:36.625Z,1013.08
2018-07-12T05:43:36.085Z,1013.06
2018-07-12T05:45:32.951Z,1013.05
2018-07-12T05:46:32.066Z,1013.09
2018-07-12T05:48:27.991Z,1013.07
2018-07-12T05:49:27.981Z,1013.09
2018-07-12T05:51:25.518Z,1013.12
2018-07-12T05:52:23.937Z,1013.10
2018-07-12T05:54:26.425Z,1013.19
2018-07-12T05:55:25.108Z,1013.15
2018-07-12T05:57:20.062Z,1013.21
2018-07-12T05:58:19.544Z,1013.20
2018-07-12T06:00:16.514Z,1013.22
2018-07-12T06:01:16.015Z,1013.25
2018-07-12T06:03:11.440Z,1013.26
2018-07-12T06:04:11.436Z,1013.22
2018-07-12T06:06:09.434Z,1013.30
2018-07-12T06:07:09.908Z,1013.34
2018-07-12T06:09:03.799Z,1013.35
2018-07-12T06:10:03.815Z,1013.40
2018-07-12T06:11:58.763Z,1013.41
2018-07-12T06:12:58.250Z,1013.41
2018-07-12T06:14:54.218Z,1013.46
2018-07-12T06:15:54.723Z,1013.44
2018-07-12T06:17:48.672Z,1013.46
2018-07-12T06:18:50.861Z,1013.46
2018-07-12T06:20:56.853Z,1013.47
2018-07-12T06:21:43.155Z,1013.44
2018-07-12T06:23:38.609Z,1013.39
2018-07-12T06:24:37.711Z,1013.38
2018-07-12T06:26:34.120Z,1013.41
2018-07-12T06:27:33.612Z,1013.47
2018-07-12T06:29:30.052Z,1013.47
2018-07-12T06:30:29.550Z,1013.49
2018-07-12T06:32:26.998Z,1013.50
2018-07-12T06:33:25.492Z,1013.49
2018-07-12T06:35:21.952Z,1013.51
2018-07-12T06:36:21.458Z,1013.56
2018-07-12T06:38:15.417Z,1013.61
2018-07-12T06:39:14.907Z,1013.63
2018-07-12T06:41:10.892Z,1013.63
2018-07-12T06:42:10.842Z,1013.65
2018-07-12T06:44:06.848Z,1013.61
2018-07-12T06:45:06.808Z,1013.68
2018-07-12T06:47:01.258Z,1013.67
2018-07-12T06:48:01.237Z,1013.64
2018-07-12T06:49:57.214Z,1013.67
2018-07-12T06:50:57.209Z,1013.70
2018-07-12T06:52:54.712Z,1013.76
2018-07-12T06:53:53.181Z,1013.80
2018-07-12T06:55:48.127Z,1013.74
2018-07-12T06:56:47.636Z,1013.76
2018-07-12T06:58:44.081Z,1013.79
2018-07-12T06:59:43.583Z,1013.76
2018-07-12T07:01:39.543Z,1013.84
2018-07-12T07:02:39.534Z,1013.82
2018-07-12T07:04:35.520Z,1013.80
2018-07-12T07:05:35.504Z,1013.82
2018-07-12T07:07:31.436Z,1013.81
2018-07-12T07:08:31.436Z,1013.79
2018-07-12T07:10:28.401Z,1013.79
2018-07-12T07:11:27.413Z,1013.76
2018-07-12T07:13:23.866Z,1013.75
2018-07-12T07:14:23.350Z,1013.74
2018-07-12T07:16:19.812Z,1013.78
2018-07-12T07:17:19.286Z,1013.76
2018-07-12T07:19:13.734Z,1013.79
2018-07-12T07:20:13.766Z,1013.84
2018-07-12T07:22:12.217Z,1013.84
2018-07-12T07:23:11.872Z,1013.86
2018-07-12T07:25:08.356Z,1013.91
2018-07-12T07:26:08.392Z,1013.96
2018-07-12T07:28:02.285Z,1013.93
2018-07-12T07:29:02.287Z,1013.97
2018-07-12T07:30:58.238Z,1013.95
2018-07-12T07:31:58.241Z,1013.94
2018-07-12T07:33:55.215Z,1013.95
2018-07-12T07:34:54.181Z,1013.89
2018-07-12T07:36:50.634Z,1013.90
2018-07-12T07:37:50.111Z,1013.93
2018-07-12T07:39:44.574Z,1014.00
2018-07-12T07:40:44.594Z,1014.02
2018-07-12T07:42:38.009Z,1014.00
2018-07-12T07:43:38.025Z,1014.00
2018-07-12T07:45:34.996Z,1014.06
2018-07-12T07:46:33.996Z,1014.08
2018-07-12T07:48:30.442Z,1014.11
2018-07-12T07:49:29.955Z,1014.09
2018-07-12T07:51:24.416Z,1014.14
2018-07-12T07:52:24.405Z,1014.12
2018-07-12T07:54:19.875Z,1014.11
2018-07-12T07:55:18.860Z,1014.14
2018-07-12T07:57:15.323Z,1014.14
2018-07-12T07:58:15.315Z,1014.14
2018-07-12T08:00:11.274Z,1014.13
2018-07-12T08:01:10.774Z,1014.14
2018-07-12T08:03:06.755Z,1014.15
2018-07-12T08:04:06.744Z,1014.12
2018-07-12T08:06:06.706Z,1014.13
2018-07-12T08:07:05.208Z,1014.17
2018-07-12T08:09:01.158Z,1014.19
2018-07-12T08:10:00.642Z,1014.20
2018-07-12T08:11:58.104Z,1014.18
2018-07-12T08:12:57.092Z,1014.19
2018-07-12T08:14:52.515Z,1014.18
2018-07-12T08:15:52.530Z,1014.17
2018-07-12T08:17:48.515Z,1014.14
2018-07-12T08:18:48.494Z,1014.17
2018-07-12T08:20:42.985Z,1014.16
2018-07-12T08:21:42.978Z,1014.11
2018-07-12T08:23:38.968Z,1014.18
2018-07-12T08:24:38.948Z,1014.19
2018-07-12T08:26:34.911Z,1014.15
2018-07-12T08:27:33.909Z,1014.12
2018-07-12T08:29:29.341Z,1014.02
2018-07-12T08:30:29.342Z,1014.00
2018-07-12T08:32:26.319Z,1014.06
2018-07-12T08:33:26.346Z,1014.06
2018-07-12T08:35:22.267Z,1014.03
2018-07-12T08:36:22.277Z,1014.07
2018-07-12T08:38:18.728Z,1014.14
2018-07-12T08:39:18.229Z,1014.17
2018-07-12T08:41:12.667Z,1014.12
2018-07-12T08:42:12.671Z,1014.12
2018-07-12T08:44:09.134Z,1014.13
2018-07-12T08:45:08.629Z,1014.13
2018-07-12T08:47:04.542Z,1014.10
2018-07-12T08:48:04.542Z,1014.08
2018-07-12T08:50:00.560Z,1014.13
2018-07-12T08:51:00.512Z,1014.14
2018-07-12T08:52:56.490Z,1014.15
2018-07-12T08:53:56.959Z,1014.18
2018-07-12T08:55:52.392Z,1014.20
2018-07-12T08:56:52.917Z,1014.18
2018-07-12T08:58:48.370Z,1014.20
2018-07-12T08:59:48.870Z,1014.19
2018-07-12T09:01:44.820Z,1014.20
2018-07-12T09:02:44.360Z,1014.24
2018-07-12T09:04:40.793Z,1014.21
2018-07-12T09:05:41.791Z,1014.25
2018-07-12T09:07:37.255Z,1014.24
2018-07-12T09:08:36.756Z,1014.21
2018-07-12T09:10:34.727Z,1014.26
2018-07-12T09:11:34.382Z,1014.26
2018-07-12T09:13:29.857Z,1014.27
2018-07-12T09:14:29.365Z,1014.22
2018-07-12T09:16:24.763Z,1014.18
2018-07-12T09:17:25.300Z,1014.20
2018-07-12T09:19:20.756Z,1014.20
2018-07-12T09:20:20.741Z,1014.16
2018-07-12T09:22:16.719Z,1014.17
2018-07-12T09:23:16.716Z,1014.22
2018-07-12T09:25:12.675Z,1014.29
2018-07-12T09:26:13.660Z,1014.26
2018-07-12T09:28:09.139Z,1014.24
2018-07-12T09:29:09.199Z,1014.24
2018-07-12T09:31:06.112Z,1014.23
2018-07-12T09:32:04.588Z,1014.24
2018-07-12T09:34:00.531Z,1014.28
2018-07-12T09:35:00.563Z,1014.30
2018-07-12T09:36:56.516Z,1014.34
2018-07-12T09:37:56.473Z,1014.31
2018-07-12T09:39:52.959Z,1014.33
2018-07-12T09:40:52.416Z,1014.31
2018-07-12T09:42:48.371Z,1014.29
2018-07-12T09:43:48.373Z,1014.31
2018-07-12T09:45:45.345Z,1014.29
2018-07-12T09:46:45.345Z,1014.30
2018-07-12T09:48:41.308Z,1014.29
2018-07-12T09:49:40.283Z,1014.32
2018-07-12T09:51:36.758Z,1014.32
2018-07-12T09:52:36.264Z,1014.36
2018-07-12T09:54:32.721Z,1014.30
2018-07-12T09:55:32.222Z,1014.33
2018-07-12T09:57:28.696Z,1014.35
2018-07-12T09:58:29.179Z,1014.38
2018-07-12T10:00:25.655Z,1014.38
2018-07-12T10:01:24.163Z,1014.38
2018-07-12T10:03:21.121Z,1014.37
2018-07-12T10:04:20.635Z,1014.36
2018-07-12T10:06:14.594Z,1014.35
2018-07-12T10:07:14.557Z,1014.35
2018-07-12T10:09:12.520Z,1014.37
2018-07-12T10:10:10.556Z,1014.35
2018-07-12T10:12:07.032Z,1014.32
2018-07-12T10:13:06.489Z,1014.27
2018-07-12T10:15:04.477Z,1014.28
2018-07-12T10:16:02.487Z,1014.27
2018-07-12T10:17:58.975Z,1014.28
2018-07-12T10:18:58.502Z,1014.27
2018-07-12T10:20:54.452Z,1014.31
2018-07-12T10:21:54.461Z,1014.30
2018-07-12T10:23:48.937Z,1014.32
2018-07-12T10:24:48.921Z,1014.31
2018-07-12T10:26:44.854Z,1014.32
2018-07-12T10:27:44.866Z,1014.29
2018-07-12T10:29:41.336Z,1014.32
2018-07-12T10:30:40.816Z,1014.32
2018-07-12T10:32:36.788Z,1014.30
2018-07-12T10:33:36.773Z,1014.36
2018-07-12T10:35:34.277Z,1014.31
2018-07-12T10:36:32.761Z,1014.29
2018-07-12T10:38:27.267Z,1014.28
2018-07-12T10:39:27.730Z,1014.33
2018-07-12T10:41:21.693Z,1014.31
2018-07-12T10:42:21.692Z,1014.35
2018-07-12T10:44:17.663Z,1014.32
2018-07-12T10:45:17.649Z,1014.37
2018-07-12T10:47:14.624Z,1014.35
2018-07-12T10:48:13.609Z,1014.36
2018-07-12T10:50:09.599Z,1014.33
2018-07-12T10:51:09.579Z,1014.35
2018-07-12T10:53:07.675Z,1014.37
2018-07-12T10:54:07.700Z,1014.35
2018-07-12T10:56:04.667Z,1014.39
2018-07-12T10:57:03.643Z,1014.40
2018-07-12T10:59:01.192Z,1014.41
2018-07-12T10:59:59.631Z,1014.41
2018-07-12T11:01:56.089Z,1014.36
2018-07-12T11:02:55.587Z,1014.34
2018-07-12T11:04:51.555Z,1014.36
2018-07-12T11:05:51.515Z,1014.39
2018-07-12T11:07:46.988Z,1014.33
2018-07-12T11:08:45.982Z,1014.37
2018-07-12T11:10:42.455Z,1014.29
2018-07-12T11:11:43.369Z,1014.26
2018-07-12T11:13:39.897Z,1014.27
2018-07-12T11:14:37.904Z,1014.27
2018-07-12T11:16:36.358Z,1014.20
2018-07-12T11:17:33.886Z,1014.28
2018-07-12T11:19:29.851Z,1014.28
2018-07-12T11:20:29.831Z,1014.29
2018-07-12T11:22:26.308Z,1014.26
2018-07-12T11:23:26.307Z,1014.25
2018-07-12T11:25:22.261Z,1014.26
2018-07-12T11:26:21.760Z,1014.29
2018-07-12T11:28:18.222Z,1014.31
2018-07-12T11:29:18.216Z,1014.31
2018-07-12T11:31:13.685Z,1014.28
2018-07-12T11:32:14.179Z,1014.28
2018-07-12T11:34:09.615Z,1014.26
2018-07-12T11:35:09.644Z,1014.24
2018-07-12T11:37:06.679Z,1014.29
2018-07-12T11:38:05.644Z,1014.22
2018-07-12T11:40:02.141Z,1014.21
2018-07-12T11:41:01.629Z,1014.18
2018-07-12T11:42:57.607Z,1014.27
2018-07-12T11:43:56.098Z,1014.26
2018-07-12T11:45:52.059Z,1014.21
2018-07-12T11:46:52.044Z,1014.22
2018-07-12T11:48:48.518Z,1014.18
2018-07-12T11:49:48.014Z,1014.21
2018-07-12T11:51:45.472Z,1014.18
2018-07-12T11:52:44.062Z,1014.19
2018-07-12T11:54:39.944Z,1014.22
2018-07-12T11:55:39.944Z,1014.19
2018-07-12T11:57:35.914Z,1014.19
2018-07-12T11:58:35.901Z,1014.22
2018-07-12T12:00:33.877Z,1014.20
2018-07-12T12:01:32.397Z,1014.18
2018-07-12T12:03:29.850Z,1014.24
2018-07-12T12:04:29.354Z,1014.20
2018-07-12T12:06:24.830Z,1014.30
2018-07-12T12:07:25.309Z,1014.23
2018-07-12T12:09:23.730Z,1014.23
2018-07-12T12:10:23.734Z,1014.23
2018-07-12T12:12:18.729Z,1014.22
2018-07-12T12:13:19.206Z,1014.22
2018-07-12T12:15:14.667Z,1014.17
2018-07-12T12:16:14.677Z,1014.18
2018-07-12T12:18:10.635Z,1014.11
2018-07-12T12:19:10.626Z,1014.05
2018-07-12T12:21:05.105Z,1014.09
2018-07-12T12:22:06.090Z,1014.06
2018-07-12T12:24:02.009Z,1014.00
2018-07-12T12:25:01.096Z,1014.04
2018-07-12T12:26:57.577Z,1014.02
2018-07-12T12:27:57.563Z,1014.05
2018-07-12T12:29:53.026Z,1014.00
2018-07-12T12:30:53.015Z,1013.96
2018-07-12T12:32:48.996Z,1013.93
2018-07-12T12:33:48.991Z,1013.93
2018-07-12T12:35:45.441Z,1014.03
2018-07-12T12:36:44.938Z,1013.97
2018-07-12T12:38:42.406Z,1013.93
2018-07-12T12:39:40.928Z,1013.96
2018-07-12T12:41:37.899Z,1013.95
2018-07-12T12:42:36.912Z,1014.00
2018-07-12T12:44:33.407Z,1014.05
2018-07-12T12:45:33.375Z,1014.06
2018-07-12T12:47:28.812Z,1014.03
2018-07-12T12:48:29.332Z,1014.00
2018-07-12T12:50:23.794Z,1013.94
2018-07-12T12:51:23.295Z,1013.93
2018-07-12T12:53:19.798Z,1013.91
2018-07-12T12:54:19.279Z,1013.93
2018-07-12T12:56:15.257Z,1013.91
2018-07-12T12:57:15.210Z,1013.88
2018-07-12T12:59:11.174Z,1013.91
2018-07-12T13:00:11.264Z,1013.91
2018-07-12T13:02:07.702Z,1013.86
2018-07-12T13:03:07.656Z,1013.87
2018-07-12T13:05:03.620Z,1013.81
2018-07-12T13:06:03.116Z,1013.82
2018-07-12T13:07:59.092Z,1013.84
2018-07-12T13:08:59.567Z,1013.84
2018-07-12T13:10:55.094Z,1013.79
2018-07-12T13:11:55.548Z,1013.78
2018-07-12T13:13:51.513Z,1013.77
2018-07-12T13:14:51.021Z,1013.79
2018-07-12T13:16:46.994Z,1013.71
2018-07-12T13:17:47.479Z,1013.74
2018-07-12T13:19:45.004Z,1013.72
2018-07-12T13:20:42.939Z,1013.70
2018-07-12T13:22:38.891Z,1013.78
2018-07-12T13:23:39.663Z,1013.79
2018-07-12T13:25:34.847Z,1013.81
2018-07-12T13:26:36.375Z,1013.78
2018-07-12T13:28:31.332Z,1013.78
2018-07-12T13:29:30.816Z,1013.76
2018-07-12T13:31:26.831Z,1013.69
2018-07-12T13:32:26.773Z,1013.66
2018-07-12T13:34:22.725Z,1013.61
2018-07-12T13:35:22.742Z,1013.59
2018-07-12T13:37:19.203Z,1013.60
2018-07-12T13:38:19.209Z,1013.63
2018-07-12T13:40:14.679Z,1013.63
2018-07-12T13:41:15.169Z,1013.63
2018-07-12T13:43:10.686Z,1013.63
2018-07-12T13:44:10.620Z,1013.67
2018-07-12T13:46:06.617Z,1013.66
2018-07-12T13:47:06.559Z,1013.66
2018-07-12T13:49:05.526Z,1013.63
2018-07-12T13:50:04.536Z,1013.68
2018-07-12T13:52:01.057Z,1013.67
2018-07-12T13:53:00.488Z,1013.67
2018-07-12T13:54:56.467Z,1013.60
2018-07-12T13:55:54.953Z,1013.64
2018-07-12T13:57:52.958Z,1013.61
2018-07-12T13:58:52.917Z,1013.59
2018-07-12T14:00:49.403Z,1013.59
2018-07-12T14:01:48.912Z,1013.60
2018-07-12T14:03:46.886Z,1013.59
2018-07-12T14:04:46.893Z,1013.57
2018-07-12T14:06:41.846Z,1013.61
2018-07-12T14:07:41.308Z,1013.58
2018-07-12T14:09:37.802Z,1013.55
2018-07-12T14:10:38.278Z,1013.54
2018-07-12T14:12:33.274Z,1013.52
2018-07-12T14:13:33.263Z,1013.54
2018-07-12T14:15:30.725Z,1013.54
2018-07-12T14:16:29.227Z,1013.54
2018-07-12T14:18:25.224Z,1013.53
2018-07-12T14:19:25.212Z,1013.52
2018-07-12T14:21:21.202Z,1013.52
2018-07-12T14:22:21.195Z,1013.55
2018-07-12T14:24:17.652Z,1013.47
2018-07-12T14:25:17.146Z,1013.40
2018-07-12T14:27:11.646Z,1013.41
2018-07-12T14:28:12.158Z,1013.38
2018-07-12T14:30:07.576Z,1013.37
2018-07-12T14:31:07.594Z,1013.38
2018-07-12T14:33:03.554Z,1013.38
2018-07-12T14:34:03.547Z,1013.34
2018-07-12T14:35:58.028Z,1013.29
2018-07-12T14:36:58.042Z,1013.30
2018-07-12T14:38:54.015Z,1013.30
2018-07-12T14:39:54.021Z,1013.32
2018-07-12T14:41:49.949Z,1013.31
2018-07-12T14:42:49.973Z,1013.32
2018-07-12T14:44:45.931Z,1013.30
2018-07-12T14:45:45.946Z,1013.31
2018-07-12T14:47:41.896Z,1013.28
2018-07-12T14:48:42.398Z,1013.26
2018-07-12T14:50:37.866Z,1013.19
2018-07-12T14:51:37.874Z,1013.23
2018-07-12T14:53:34.842Z,1013.25
2018-07-12T14:54:33.864Z,1013.32
2018-07-12T14:56:28.315Z,1013.23
2018-07-12T14:57:28.263Z,1013.23
2018-07-12T14:59:24.240Z,1013.19
2018-07-12T15:00:24.238Z,1013.21
2018-07-12T15:02:21.214Z,1013.18
2018-07-12T15:03:20.224Z,1013.20
2018-07-12T15:05:16.169Z,1013.20
2018-07-12T15:06:16.194Z,1013.18
2018-07-12T15:08:12.175Z,1013.19
2018-07-12T15:09:12.270Z,1013.18
2018-07-12T15:11:08.647Z,1013.17
2018-07-12T15:12:08.114Z,1013.22
2018-07-12T15:14:05.595Z,1013.20
2018-07-12T15:15:04.589Z,1013.20
2018-07-12T15:17:00.570Z,1013.19
2018-07-12T15:18:00.015Z,1013.19
2018-07-12T15:19:56.487Z,1013.16
2018-07-12T15:20:55.973Z,1013.16
2018-07-12T15:22:51.921Z,1013.10
2018-07-12T15:23:53.439Z,1013.05
2018-07-12T15:25:48.444Z,1012.97
2018-07-12T15:26:47.905Z,1012.95
2018-07-12T15:29:04.973Z,1012.99
2018-07-12T15:29:56.390Z,1013.01
2018-07-12T15:31:52.377Z,1012.97
2018-07-12T15:32:51.848Z,1012.96
2018-07-12T15:34:49.946Z,1012.99
2018-07-12T15:35:48.743Z,1012.99
2018-07-12T15:37:45.788Z,1013.03
2018-07-12T15:38:45.486Z,1013.01
2018-07-12T15:40:42.850Z,1013.07
2018-07-12T15:41:41.451Z,1013.00
2018-07-12T15:43:40.964Z,1013.01
2018-07-12T15:44:40.522Z,1013.03
2018-07-12T15:46:39.200Z,1013.01
2018-07-12T15:48:55.478Z,1012.99
2018-07-12T15:51:10.811Z,1013.04
2018-07-12T15:54:06.799Z,1012.99
2018-07-12T15:56:22.321Z,1012.86
2018-07-12T16:00:16.619Z,1012.94
2018-07-12T16:01:17.126Z,1012.97
2018-07-12T16:03:13.627Z,1012.96
2018-07-12T16:04:13.579Z,1012.95
2018-07-12T16:06:09.544Z,1012.93
2018-07-12T16:07:10.041Z,1012.83
2018-07-12T16:09:05.485Z,1012.89
2018-07-12T16:10:04.501Z,1012.89
2018-07-12T16:12:00.475Z,1012.93
2018-07-12T16:13:00.499Z,1012.89
2018-07-12T16:14:56.500Z,1012.88
2018-07-12T16:15:56.500Z,1012.85
2018-07-12T16:17:52.464Z,1012.86
2018-07-12T16:20:09.437Z,1012.83
2018-07-12T16:21:08.947Z,1012.83
2018-07-12T16:23:02.900Z,1012.85
2018-07-12T16:24:02.909Z,1012.94
2018-07-12T16:25:58.880Z,1012.86
2018-07-12T16:26:58.882Z,1012.82
2018-07-12T16:28:56.998Z,1012.84
2018-07-12T16:29:57.087Z,1012.82
2018-07-12T16:31:53.499Z,1012.82
2018-07-12T16:32:53.017Z,1012.82
2018-07-12T16:34:48.971Z,1012.86
2018-07-12T16:35:48.947Z,1012.84
2018-07-12T16:37:45.421Z,1012.91
2018-07-12T16:38:45.429Z,1013.04
2018-07-12T16:40:43.049Z,1013.16
2018-07-12T16:41:43.057Z,1013.21
2018-07-12T16:43:42.512Z,1013.23
2018-07-12T16:44:41.208Z,1013.17
2018-07-12T16:46:37.174Z,1013.23
2018-07-12T16:47:37.236Z,1013.12
2018-07-12T16:49:34.645Z,1013.14
2018-07-12T16:50:33.143Z,1013.15
2018-07-12T16:52:30.110Z,1013.14
2018-07-12T16:53:29.097Z,1013.13
2018-07-12T16:55:25.099Z,1013.18
2018-07-12T16:56:25.090Z,1013.13
2018-07-12T16:58:21.048Z,1013.11
2018-07-12T16:59:21.065Z,1013.08
2018-07-12T17:01:20.532Z,1012.85
2018-07-12T17:02:18.043Z,1012.85
2018-07-12T17:04:13.516Z,1012.88
2018-07-12T17:05:13.490Z,1012.87
2018-07-12T17:07:09.009Z,1012.77
2018-07-12T17:08:08.966Z,1012.80
2018-07-12T17:10:05.936Z,1012.83
2018-07-12T17:11:04.935Z,1012.87
2018-07-12T17:13:02.922Z,1012.89
2018-07-12T17:14:02.978Z,1012.90
2018-07-12T17:16:00.903Z,1012.90
2018-07-12T17:16:59.896Z,1012.90
2018-07-12T17:18:55.885Z,1012.87
2018-07-12T17:19:55.419Z,1012.88
2018-07-12T17:21:53.865Z,1012.89
2018-07-12T17:22:53.356Z,1012.85
2018-07-12T17:24:48.804Z,1012.86
2018-07-12T17:25:49.311Z,1012.87
2018-07-12T17:27:46.783Z,1012.86
2018-07-12T17:28:46.797Z,1012.90
2018-07-12T17:30:43.294Z,1012.87
2018-07-12T17:31:42.750Z,1012.85
2018-07-12T17:33:39.868Z,1012.85
2018-07-12T17:34:38.741Z,1012.87
2018-07-12T17:36:35.712Z,1012.89
2018-07-12T17:37:34.703Z,1012.84
2018-07-12T17:39:30.733Z,1012.85
2018-07-12T17:40:30.685Z,1012.87
2018-07-12T17:42:28.143Z,1012.80
2018-07-12T17:43:26.661Z,1012.83
2018-07-12T17:45:22.616Z,1012.86
2018-07-12T17:46:23.615Z,1012.84
2018-07-12T17:48:18.576Z,1012.85
2018-07-12T17:49:18.595Z,1012.83